sensor_id;sensor_type;location;lat;lon;timestamp;P1;durP1;ratioP1;P2;durP2;ratioP2
12348;SDS011;5974;42.710;27.258;2023-07-08T00:01:58;7.73;;;5.10;;
12348;SDS011;5974;42.710;27.258;2023-07-08T00:04:25;6.57;;;5.37;;
12348;SDS011;5974;42.710;27.258;2023-07-08T00:06:53;8.97;;;4.57;;
12348;SDS011;5974;42.710;27.258;2023-07-08T00:09:20;5.37;;;4.87;;
12348;SDS011;5974;42.710;27.258;2023-07-08T00:11:47;9.03;;;5.30;;
12348;SDS011;5974;42.710;27.258;2023-07-08T00:14:14;5.30;;;4.80;;
12348;SDS011;5974;42.710;27.258;2023-07-08T00:16:40;5.83;;;5.30;;
12348;SDS011;5974;42.710;27.258;2023-07-08T00:19:08;5.53;;;5.03;;
12348;SDS011;5974;42.710;27.258;2023-07-08T00:21:35;5.77;;;5.27;;
12348;SDS011;5974;42.710;27.258;2023-07-08T00:24:04;5.70;;;5.10;;
12348;SDS011;5974;42.710;27.258;2023-07-08T00:26:31;5.40;;;4.83;;
12348;SDS011;5974;42.710;27.258;2023-07-08T00:28:58;5.83;;;5.10;;
12348;SDS011;5974;42.710;27.258;2023-07-08T00:31:25;5.53;;;5.00;;
12348;SDS011;5974;42.710;27.258;2023-07-08T00:33:53;5.10;;;4.70;;
12348;SDS011;5974;42.710;27.258;2023-07-08T00:36:21;6.00;;;5.37;;
12348;SDS011;5974;42.710;27.258;2023-07-08T00:38:50;5.33;;;4.87;;
12348;SDS011;5974;42.710;27.258;2023-07-08T00:41:18;5.40;;;4.90;;
12348;SDS011;5974;42.710;27.258;2023-07-08T00:43:50;5.30;;;4.80;;
12348;SDS011;5974;42.710;27.258;2023-07-08T00:46:26;7.03;;;5.00;;
12348;SDS011;5974;42.710;27.258;2023-07-08T00:49:03;8.90;;;5.03;;
12348;SDS011;5974;42.710;27.258;2023-07-08T00:51:41;5.07;;;4.67;;
12348;SDS011;5974;42.710;27.258;2023-07-08T00:54:10;7.90;;;4.80;;
12348;SDS011;5974;42.710;27.258;2023-07-08T00:56:40;5.57;;;5.07;;
12348;SDS011;5974;42.710;27.258;2023-07-08T00:59:11;5.20;;;4.80;;
12348;SDS011;5974;42.710;27.258;2023-07-08T01:01:44;5.27;;;4.73;;
12348;SDS011;5974;42.710;27.258;2023-07-08T01:04:12;6.07;;;5.47;;
12348;SDS011;5974;42.710;27.258;2023-07-08T01:06:44;6.17;;;4.67;;
12348;SDS011;5974;42.710;27.258;2023-07-08T01:09:22;6.03;;;5.13;;
12348;SDS011;5974;42.710;27.258;2023-07-08T01:11:54;6.60;;;4.70;;
12348;SDS011;5974;42.710;27.258;2023-07-08T01:14:22;5.40;;;4.87;;
12348;SDS011;5974;42.710;27.258;2023-07-08T01:16:53;6.33;;;4.90;;
12348;SDS011;5974;42.710;27.258;2023-07-08T01:19:21;5.40;;;4.70;;
12348;SDS011;5974;42.710;27.258;2023-07-08T01:22:02;5.00;;;4.50;;
12348;SDS011;5974;42.710;27.258;2023-07-08T01:24:30;5.37;;;4.93;;
12348;SDS011;5974;42.710;27.258;2023-07-08T01:26:59;4.97;;;4.57;;
12348;SDS011;5974;42.710;27.258;2023-07-08T01:29:28;6.27;;;4.60;;
12348;SDS011;5974;42.710;27.258;2023-07-08T01:31:55;4.67;;;4.30;;
12348;SDS011;5974;42.710;27.258;2023-07-08T01:34:23;5.33;;;4.70;;
12348;SDS011;5974;42.710;27.258;2023-07-08T01:36:51;4.70;;;4.30;;
12348;SDS011;5974;42.710;27.258;2023-07-08T01:39:23;5.33;;;4.73;;
12348;SDS011;5974;42.710;27.258;2023-07-08T01:41:51;5.17;;;4.67;;
12348;SDS011;5974;42.710;27.258;2023-07-08T01:44:26;5.20;;;4.70;;
12348;SDS011;5974;42.710;27.258;2023-07-08T01:46:55;5.23;;;4.77;;
12348;SDS011;5974;42.710;27.258;2023-07-08T01:49:26;5.63;;;4.60;;
12348;SDS011;5974;42.710;27.258;2023-07-08T01:51:53;4.97;;;4.57;;
12348;SDS011;5974;42.710;27.258;2023-07-08T01:54:23;6.60;;;4.50;;
12348;SDS011;5974;42.710;27.258;2023-07-08T01:56:54;4.70;;;4.40;;
12348;SDS011;5974;42.710;27.258;2023-07-08T01:59:21;4.90;;;4.50;;
12348;SDS011;5974;42.710;27.258;2023-07-08T02:01:48;5.10;;;4.70;;
12348;SDS011;5974;42.710;27.258;2023-07-08T02:04:19;5.13;;;4.37;;
12348;SDS011;5974;42.710;27.258;2023-07-08T02:06:50;7.30;;;4.70;;
12348;SDS011;5974;42.710;27.258;2023-07-08T02:09:19;4.83;;;4.37;;
12348;SDS011;5974;42.710;27.258;2023-07-08T02:11:48;8.20;;;4.50;;
12348;SDS011;5974;42.710;27.258;2023-07-08T02:14:15;5.13;;;4.73;;
12348;SDS011;5974;42.710;27.258;2023-07-08T02:16:42;7.13;;;4.63;;
12348;SDS011;5974;42.710;27.258;2023-07-08T02:19:09;4.87;;;4.47;;
12348;SDS011;5974;42.710;27.258;2023-07-08T02:21:37;4.90;;;4.30;;
12348;SDS011;5974;42.710;27.258;2023-07-08T02:24:05;5.83;;;4.80;;
12348;SDS011;5974;42.710;27.258;2023-07-08T02:26:32;5.93;;;4.77;;
12348;SDS011;5974;42.710;27.258;2023-07-08T02:29:01;5.00;;;4.60;;
12348;SDS011;5974;42.710;27.258;2023-07-08T02:31:28;5.47;;;4.97;;
12348;SDS011;5974;42.710;27.258;2023-07-08T02:33:55;5.67;;;5.10;;
12348;SDS011;5974;42.710;27.258;2023-07-08T02:36:22;4.87;;;4.37;;
12348;SDS011;5974;42.710;27.258;2023-07-08T02:38:49;4.73;;;4.33;;
12348;SDS011;5974;42.710;27.258;2023-07-08T02:41:16;7.20;;;4.57;;
12348;SDS011;5974;42.710;27.258;2023-07-08T02:43:43;4.30;;;4.00;;
12348;SDS011;5974;42.710;27.258;2023-07-08T02:46:12;4.67;;;4.27;;
12348;SDS011;5974;42.710;27.258;2023-07-08T02:48:39;5.40;;;4.17;;
12348;SDS011;5974;42.710;27.258;2023-07-08T02:51:06;5.00;;;4.50;;
12348;SDS011;5974;42.710;27.258;2023-07-08T02:53:34;7.97;;;4.00;;
12348;SDS011;5974;42.710;27.258;2023-07-08T02:56:01;6.00;;;5.00;;
12348;SDS011;5974;42.710;27.258;2023-07-08T02:58:27;6.60;;;4.57;;
12348;SDS011;5974;42.710;27.258;2023-07-08T03:00:55;4.50;;;4.20;;
12348;SDS011;5974;42.710;27.258;2023-07-08T03:03:25;5.63;;;4.33;;
12348;SDS011;5974;42.710;27.258;2023-07-08T03:05:54;4.80;;;4.40;;
12348;SDS011;5974;42.710;27.258;2023-07-08T03:08:22;5.63;;;4.10;;
12348;SDS011;5974;42.710;27.258;2023-07-08T03:10:53;6.00;;;4.43;;
12348;SDS011;5974;42.710;27.258;2023-07-08T03:13:21;5.60;;;4.70;;
12348;SDS011;5974;42.710;27.258;2023-07-08T03:15:49;5.13;;;4.50;;
12348;SDS011;5974;42.710;27.258;2023-07-08T03:18:16;4.37;;;3.93;;
12348;SDS011;5974;42.710;27.258;2023-07-08T03:20:44;4.80;;;3.93;;
12348;SDS011;5974;42.710;27.258;2023-07-08T03:23:14;7.60;;;4.23;;
12348;SDS011;5974;42.710;27.258;2023-07-08T03:25:40;4.47;;;4.03;;
12348;SDS011;5974;42.710;27.258;2023-07-08T03:28:07;7.03;;;3.80;;
12348;SDS011;5974;42.710;27.258;2023-07-08T03:30:40;5.73;;;3.80;;
12348;SDS011;5974;42.710;27.258;2023-07-08T03:33:07;4.80;;;3.73;;
12348;SDS011;5974;42.710;27.258;2023-07-08T03:35:34;5.57;;;4.23;;
12348;SDS011;5974;42.710;27.258;2023-07-08T03:38:05;4.93;;;3.60;;
12348;SDS011;5974;42.710;27.258;2023-07-08T03:40:32;4.77;;;3.93;;
12348;SDS011;5974;42.710;27.258;2023-07-08T03:42:59;3.93;;;3.63;;
12348;SDS011;5974;42.710;27.258;2023-07-08T03:45:25;4.80;;;3.70;;
12348;SDS011;5974;42.710;27.258;2023-07-08T03:47:52;4.77;;;3.53;;
12348;SDS011;5974;42.710;27.258;2023-07-08T03:50:20;3.50;;;3.20;;
12348;SDS011;5974;42.710;27.258;2023-07-08T03:52:49;8.03;;;3.77;;
12348;SDS011;5974;42.710;27.258;2023-07-08T03:55:19;6.70;;;3.53;;
12348;SDS011;5974;42.710;27.258;2023-07-08T03:57:46;3.43;;;3.13;;
12348;SDS011;5974;42.710;27.258;2023-07-08T04:00:13;5.30;;;3.50;;
12348;SDS011;5974;42.710;27.258;2023-07-08T04:02:41;4.90;;;3.40;;
12348;SDS011;5974;42.710;27.258;2023-07-08T04:05:12;12.03;;;3.30;;
12348;SDS011;5974;42.710;27.258;2023-07-08T04:07:41;3.40;;;3.10;;
12348;SDS011;5974;42.710;27.258;2023-07-08T04:10:08;4.23;;;3.80;;
12348;SDS011;5974;42.710;27.258;2023-07-08T04:12:37;3.47;;;3.17;;
12348;SDS011;5974;42.710;27.258;2023-07-08T04:15:06;3.80;;;3.40;;
12348;SDS011;5974;42.710;27.258;2023-07-08T04:17:35;3.33;;;3.03;;
12348;SDS011;5974;42.710;27.258;2023-07-08T04:20:04;3.10;;;2.90;;
12348;SDS011;5974;42.710;27.258;2023-07-08T04:22:33;3.50;;;3.20;;
12348;SDS011;5974;42.710;27.258;2023-07-08T04:25:01;3.60;;;3.33;;
12348;SDS011;5974;42.710;27.258;2023-07-08T04:27:28;3.63;;;3.10;;
12348;SDS011;5974;42.710;27.258;2023-07-08T04:29:57;4.43;;;3.23;;
12348;SDS011;5974;42.710;27.258;2023-07-08T04:32:24;3.20;;;3.00;;
12348;SDS011;5974;42.710;27.258;2023-07-08T04:34:51;5.17;;;3.17;;
12348;SDS011;5974;42.710;27.258;2023-07-08T04:37:18;4.00;;;3.60;;
12348;SDS011;5974;42.710;27.258;2023-07-08T04:39:45;3.60;;;3.30;;
12348;SDS011;5974;42.710;27.258;2023-07-08T04:44:41;3.50;;;3.20;;
12348;SDS011;5974;42.710;27.258;2023-07-08T04:47:09;3.80;;;3.40;;
12348;SDS011;5974;42.710;27.258;2023-07-08T04:49:39;4.37;;;3.70;;
12348;SDS011;5974;42.710;27.258;2023-07-08T04:52:08;4.30;;;3.90;;
12348;SDS011;5974;42.710;27.258;2023-07-08T04:54:36;4.90;;;3.13;;
12348;SDS011;5974;42.710;27.258;2023-07-08T04:57:03;7.03;;;3.37;;
12348;SDS011;5974;42.710;27.258;2023-07-08T04:59:30;4.07;;;3.47;;
12348;SDS011;5974;42.710;27.258;2023-07-08T05:01:59;3.47;;;3.23;;
12348;SDS011;5974;42.710;27.258;2023-07-08T05:04:28;4.53;;;3.37;;
12348;SDS011;5974;42.710;27.258;2023-07-08T05:06:55;5.27;;;3.40;;
12348;SDS011;5974;42.710;27.258;2023-07-08T05:09:22;3.33;;;3.03;;
12348;SDS011;5974;42.710;27.258;2023-07-08T05:11:51;3.97;;;3.60;;
12348;SDS011;5974;42.710;27.258;2023-07-08T05:14:18;3.93;;;3.53;;
12348;SDS011;5974;42.710;27.258;2023-07-08T05:16:45;6.23;;;3.27;;
12348;SDS011;5974;42.710;27.258;2023-07-08T05:19:12;3.50;;;3.10;;
12348;SDS011;5974;42.710;27.258;2023-07-08T05:21:41;6.93;;;3.20;;
12348;SDS011;5974;42.710;27.258;2023-07-08T05:24:10;4.10;;;3.30;;
12348;SDS011;5974;42.710;27.258;2023-07-08T05:26:37;3.77;;;3.47;;
12348;SDS011;5974;42.710;27.258;2023-07-08T05:29:04;3.27;;;2.97;;
12348;SDS011;5974;42.710;27.258;2023-07-08T05:31:31;3.87;;;2.90;;
12348;SDS011;5974;42.710;27.258;2023-07-08T05:33:59;3.20;;;2.90;;
12348;SDS011;5974;42.710;27.258;2023-07-08T05:36:26;3.33;;;3.10;;
12348;SDS011;5974;42.710;27.258;2023-07-08T05:38:54;3.30;;;3.10;;
12348;SDS011;5974;42.710;27.258;2023-07-08T05:41:21;4.13;;;3.07;;
12348;SDS011;5974;42.710;27.258;2023-07-08T05:43:48;3.20;;;3.00;;
12348;SDS011;5974;42.710;27.258;2023-07-08T05:46:15;3.17;;;2.97;;
12348;SDS011;5974;42.710;27.258;2023-07-08T05:48:42;3.73;;;3.40;;
12348;SDS011;5974;42.710;27.258;2023-07-08T05:51:09;3.60;;;3.30;;
12348;SDS011;5974;42.710;27.258;2023-07-08T05:53:35;4.00;;;3.50;;
12348;SDS011;5974;42.710;27.258;2023-07-08T05:56:04;3.67;;;3.37;;
12348;SDS011;5974;42.710;27.258;2023-07-08T05:58:31;3.70;;;3.40;;
12348;SDS011;5974;42.710;27.258;2023-07-08T06:00:58;3.60;;;3.30;;
12348;SDS011;5974;42.710;27.258;2023-07-08T06:03:25;3.20;;;3.00;;
12348;SDS011;5974;42.710;27.258;2023-07-08T06:05:52;3.60;;;3.30;;
12348;SDS011;5974;42.710;27.258;2023-07-08T06:08:19;3.87;;;3.50;;
12348;SDS011;5974;42.710;27.258;2023-07-08T06:10:46;3.42;;;3.13;;
12348;SDS011;5974;42.710;27.258;2023-07-08T06:13:16;6.05;;;3.33;;
12348;SDS011;5974;42.710;27.258;2023-07-08T06:15:43;3.50;;;3.10;;
12348;SDS011;5974;42.710;27.258;2023-07-08T06:18:10;4.82;;;3.30;;
12348;SDS011;5974;42.710;27.258;2023-07-08T06:20:37;3.60;;;3.17;;
12348;SDS011;5974;42.710;27.258;2023-07-08T06:23:04;3.58;;;3.17;;
12348;SDS011;5974;42.710;27.258;2023-07-08T06:25:31;4.07;;;3.08;;
12348;SDS011;5974;42.710;27.258;2023-07-08T06:27:58;4.18;;;3.40;;
12348;SDS011;5974;42.710;27.258;2023-07-08T06:30:27;3.90;;;3.33;;
12348;SDS011;5974;42.710;27.258;2023-07-08T06:32:53;3.95;;;3.50;;
12348;SDS011;5974;42.710;27.258;2023-07-08T06:35:20;6.97;;;3.28;;
12348;SDS011;5974;42.710;27.258;2023-07-08T06:37:47;4.23;;;3.33;;
12348;SDS011;5974;42.710;27.258;2023-07-08T06:40:14;4.50;;;3.30;;
12348;SDS011;5974;42.710;27.258;2023-07-08T06:42:42;6.70;;;3.47;;
12348;SDS011;5974;42.710;27.258;2023-07-08T06:45:10;4.53;;;3.40;;
12348;SDS011;5974;42.710;27.258;2023-07-08T06:47:38;3.20;;;3.00;;
12348;SDS011;5974;42.710;27.258;2023-07-08T06:50:06;3.87;;;3.57;;
12348;SDS011;5974;42.710;27.258;2023-07-08T06:52:33;8.53;;;3.57;;
12348;SDS011;5974;42.710;27.258;2023-07-08T06:55:03;4.60;;;3.30;;
12348;SDS011;5974;42.710;27.258;2023-07-08T06:57:32;4.63;;;3.20;;
12348;SDS011;5974;42.710;27.258;2023-07-08T06:59:59;5.17;;;3.47;;
12348;SDS011;5974;42.710;27.258;2023-07-08T07:02:26;4.50;;;3.07;;
12348;SDS011;5974;42.710;27.258;2023-07-08T07:04:54;5.97;;;3.60;;
12348;SDS011;5974;42.710;27.258;2023-07-08T07:07:21;6.03;;;3.87;;
12348;SDS011;5974;42.710;27.258;2023-07-08T07:09:48;7.80;;;4.07;;
12348;SDS011;5974;42.710;27.258;2023-07-08T07:12:15;5.90;;;4.17;;
12348;SDS011;5974;42.710;27.258;2023-07-08T07:14:42;4.10;;;3.13;;
12348;SDS011;5974;42.710;27.258;2023-07-08T07:17:09;3.40;;;2.90;;
12348;SDS011;5974;42.710;27.258;2023-07-08T07:19:36;6.50;;;2.97;;
12348;SDS011;5974;42.710;27.258;2023-07-08T07:22:04;3.23;;;3.00;;
12348;SDS011;5974;42.710;27.258;2023-07-08T07:24:31;3.50;;;3.30;;
12348;SDS011;5974;42.710;27.258;2023-07-08T07:26:58;4.10;;;3.70;;
12348;SDS011;5974;42.710;27.258;2023-07-08T07:29:25;3.70;;;3.40;;
12348;SDS011;5974;42.710;27.258;2023-07-08T07:31:52;3.60;;;3.30;;
12348;SDS011;5974;42.710;27.258;2023-07-08T07:34:20;4.20;;;3.33;;
12348;SDS011;5974;42.710;27.258;2023-07-08T07:36:46;6.43;;;3.17;;
12348;SDS011;5974;42.710;27.258;2023-07-08T07:39:15;3.73;;;3.37;;
12348;SDS011;5974;42.710;27.258;2023-07-08T07:41:42;5.67;;;3.40;;
12348;SDS011;5974;42.710;27.258;2023-07-08T07:44:08;3.60;;;3.30;;
12348;SDS011;5974;42.710;27.258;2023-07-08T07:46:35;3.40;;;3.10;;
12348;SDS011;5974;42.710;27.258;2023-07-08T07:49:02;3.40;;;3.20;;
12348;SDS011;5974;42.710;27.258;2023-07-08T07:51:29;4.20;;;3.27;;
12348;SDS011;5974;42.710;27.258;2023-07-08T07:53:56;3.53;;;3.20;;
12348;SDS011;5974;42.710;27.258;2023-07-08T07:56:24;5.40;;;3.73;;
12348;SDS011;5974;42.710;27.258;2023-07-08T07:58:51;3.77;;;3.33;;
12348;SDS011;5974;42.710;27.258;2023-07-08T08:01:18;5.00;;;3.53;;
12348;SDS011;5974;42.710;27.258;2023-07-08T08:03:45;9.20;;;3.70;;
12348;SDS011;5974;42.710;27.258;2023-07-08T08:06:12;5.53;;;3.20;;
12348;SDS011;5974;42.710;27.258;2023-07-08T08:08:39;3.30;;;3.10;;
12348;SDS011;5974;42.710;27.258;2023-07-08T08:11:05;3.60;;;3.30;;
12348;SDS011;5974;42.710;27.258;2023-07-08T08:13:34;5.63;;;3.53;;
12348;SDS011;5974;42.710;27.258;2023-07-08T08:16:01;3.33;;;3.03;;
12348;SDS011;5974;42.710;27.258;2023-07-08T08:18:29;17.93;;;3.77;;
12348;SDS011;5974;42.710;27.258;2023-07-08T08:20:56;6.70;;;3.17;;
12348;SDS011;5974;42.710;27.258;2023-07-08T08:23:24;5.77;;;3.20;;
12348;SDS011;5974;42.710;27.258;2023-07-08T08:25:51;3.50;;;3.27;;
12348;SDS011;5974;42.710;27.258;2023-07-08T08:28:20;4.20;;;3.20;;
12348;SDS011;5974;42.710;27.258;2023-07-08T08:30:48;4.47;;;2.97;;
12348;SDS011;5974;42.710;27.258;2023-07-08T08:33:16;3.97;;;2.97;;
12348;SDS011;5974;42.710;27.258;2023-07-08T08:35:43;4.57;;;2.97;;
12348;SDS011;5974;42.710;27.258;2023-07-08T08:38:10;6.27;;;3.20;;
12348;SDS011;5974;42.710;27.258;2023-07-08T08:40:38;3.37;;;3.10;;
12348;SDS011;5974;42.710;27.258;2023-07-08T08:43:09;4.53;;;3.13;;
12348;SDS011;5974;42.710;27.258;2023-07-08T08:45:41;3.50;;;3.20;;
12348;SDS011;5974;42.710;27.258;2023-07-08T08:48:16;7.73;;;3.50;;
12348;SDS011;5974;42.710;27.258;2023-07-08T08:50:47;3.77;;;3.37;;
12348;SDS011;5974;42.710;27.258;2023-07-08T08:53:17;3.97;;;3.30;;
12348;SDS011;5974;42.710;27.258;2023-07-08T08:55:49;4.70;;;3.17;;
12348;SDS011;5974;42.710;27.258;2023-07-08T08:58:24;3.40;;;2.87;;
12348;SDS011;5974;42.710;27.258;2023-07-08T09:00:59;2.60;;;2.40;;
12348;SDS011;5974;42.710;27.258;2023-07-08T09:03:34;2.83;;;2.70;;
12348;SDS011;5974;42.710;27.258;2023-07-08T09:06:13;2.50;;;2.30;;
12348;SDS011;5974;42.710;27.258;2023-07-08T09:08:43;3.00;;;2.70;;
12348;SDS011;5974;42.710;27.258;2023-07-08T09:11:13;5.67;;;2.70;;
12348;SDS011;5974;42.710;27.258;2023-07-08T09:13:47;5.53;;;3.13;;
12348;SDS011;5974;42.710;27.258;2023-07-08T09:16:16;3.00;;;2.80;;
12348;SDS011;5974;42.710;27.258;2023-07-08T09:18:54;8.57;;;3.50;;
12348;SDS011;5974;42.710;27.258;2023-07-08T09:21:26;3.13;;;2.93;;
12348;SDS011;5974;42.710;27.258;2023-07-08T09:23:59;3.33;;;3.00;;
12348;SDS011;5974;42.710;27.258;2023-07-08T09:26:34;4.27;;;2.47;;
12348;SDS011;5974;42.710;27.258;2023-07-08T09:29:04;3.53;;;2.70;;
12348;SDS011;5974;42.710;27.258;2023-07-08T09:31:36;3.60;;;2.87;;
12348;SDS011;5974;42.710;27.258;2023-07-08T09:34:10;3.10;;;2.90;;
12348;SDS011;5974;42.710;27.258;2023-07-08T09:36:40;3.00;;;2.80;;
12348;SDS011;5974;42.710;27.258;2023-07-08T09:39:12;3.33;;;3.13;;
12348;SDS011;5974;42.710;27.258;2023-07-08T09:41:40;4.43;;;3.17;;
12348;SDS011;5974;42.710;27.258;2023-07-08T09:44:13;3.30;;;3.00;;
12348;SDS011;5974;42.710;27.258;2023-07-08T09:46:48;3.40;;;3.10;;
12348;SDS011;5974;42.710;27.258;2023-07-08T09:49:18;3.30;;;3.00;;
12348;SDS011;5974;42.710;27.258;2023-07-08T09:51:47;4.70;;;3.10;;
12348;SDS011;5974;42.710;27.258;2023-07-08T09:54:15;3.20;;;3.00;;
12348;SDS011;5974;42.710;27.258;2023-07-08T09:56:43;3.30;;;2.90;;
12348;SDS011;5974;42.710;27.258;2023-07-08T09:59:15;3.53;;;3.33;;
12348;SDS011;5974;42.710;27.258;2023-07-08T10:01:44;3.50;;;3.20;;
12348;SDS011;5974;42.710;27.258;2023-07-08T10:04:12;4.40;;;3.33;;
12348;SDS011;5974;42.710;27.258;2023-07-08T10:06:43;4.87;;;3.10;;
12348;SDS011;5974;42.710;27.258;2023-07-08T10:09:14;4.90;;;3.13;;
12348;SDS011;5974;42.710;27.258;2023-07-08T10:11:46;6.07;;;3.50;;
12348;SDS011;5974;42.710;27.258;2023-07-08T10:14:22;3.67;;;3.30;;
12348;SDS011;5974;42.710;27.258;2023-07-08T10:16:53;3.50;;;3.30;;
12348;SDS011;5974;42.710;27.258;2023-07-08T10:19:21;3.37;;;3.17;;
12348;SDS011;5974;42.710;27.258;2023-07-08T10:21:55;4.13;;;3.73;;
12348;SDS011;5974;42.710;27.258;2023-07-08T10:24:47;5.33;;;3.53;;
12348;SDS011;5974;42.710;27.258;2023-07-08T10:27:22;3.70;;;3.30;;
12348;SDS011;5974;42.710;27.258;2023-07-08T10:29:55;4.70;;;3.37;;
12348;SDS011;5974;42.710;27.258;2023-07-08T10:32:32;4.43;;;3.80;;
12348;SDS011;5974;42.710;27.258;2023-07-08T10:35:10;4.83;;;4.43;;
12348;SDS011;5974;42.710;27.258;2023-07-08T10:37:47;4.33;;;4.00;;
12348;SDS011;5974;42.710;27.258;2023-07-08T10:40:39;3.60;;;3.40;;
12348;SDS011;5974;42.710;27.258;2023-07-08T10:43:20;3.93;;;3.63;;
12348;SDS011;5974;42.710;27.258;2023-07-08T10:45:56;3.73;;;3.40;;
12348;SDS011;5974;42.710;27.258;2023-07-08T10:48:41;3.53;;;3.33;;
12348;SDS011;5974;42.710;27.258;2023-07-08T10:51:21;3.60;;;3.30;;
12348;SDS011;5974;42.710;27.258;2023-07-08T10:54:06;6.03;;;3.70;;
12348;SDS011;5974;42.710;27.258;2023-07-08T10:56:53;6.37;;;3.67;;
12348;SDS011;5974;42.710;27.258;2023-07-08T11:02:26;7.60;;;3.73;;
12348;SDS011;5974;42.710;27.258;2023-07-08T11:05:10;4.43;;;3.97;;
12348;SDS011;5974;42.710;27.258;2023-07-08T11:07:49;4.57;;;3.60;;
12348;SDS011;5974;42.710;27.258;2023-07-08T11:10:24;8.17;;;3.97;;
12348;SDS011;5974;42.710;27.258;2023-07-08T11:12:56;4.37;;;3.97;;
12348;SDS011;5974;42.710;27.258;2023-07-08T11:15:28;4.33;;;3.93;;
12348;SDS011;5974;42.710;27.258;2023-07-08T11:18:01;4.20;;;3.80;;
12348;SDS011;5974;42.710;27.258;2023-07-08T11:20:36;6.30;;;3.97;;
12348;SDS011;5974;42.710;27.258;2023-07-08T11:23:09;4.20;;;3.80;;
12348;SDS011;5974;42.710;27.258;2023-07-08T11:25:58;9.17;;;4.37;;
12348;SDS011;5974;42.710;27.258;2023-07-08T11:28:33;4.47;;;3.90;;
12348;SDS011;5974;42.710;27.258;2023-07-08T11:31:01;3.57;;;3.37;;
12348;SDS011;5974;42.710;27.258;2023-07-08T11:33:31;5.63;;;3.57;;
12348;SDS011;5974;42.710;27.258;2023-07-08T11:36:00;4.07;;;3.77;;
12348;SDS011;5974;42.710;27.258;2023-07-08T11:38:28;4.07;;;3.77;;
12348;SDS011;5974;42.710;27.258;2023-07-08T11:41:00;5.30;;;3.83;;
12348;SDS011;5974;42.710;27.258;2023-07-08T11:43:33;4.67;;;3.30;;
12348;SDS011;5974;42.710;27.258;2023-07-08T11:46:12;7.17;;;3.93;;
12348;SDS011;5974;42.710;27.258;2023-07-08T11:48:43;8.93;;;4.33;;
12348;SDS011;5974;42.710;27.258;2023-07-08T11:51:14;8.27;;;4.43;;
12348;SDS011;5974;42.710;27.258;2023-07-08T11:53:49;6.07;;;4.50;;
12348;SDS011;5974;42.710;27.258;2023-07-08T11:56:24;7.77;;;5.03;;
12348;SDS011;5974;42.710;27.258;2023-07-08T11:58:57;6.70;;;5.13;;
12348;SDS011;5974;42.710;27.258;2023-07-08T12:01:32;7.07;;;5.13;;
12348;SDS011;5974;42.710;27.258;2023-07-08T12:04:15;8.60;;;5.20;;
12348;SDS011;5974;42.710;27.258;2023-07-08T12:06:52;5.30;;;4.90;;
12348;SDS011;5974;42.710;27.258;2023-07-08T12:09:28;7.57;;;5.30;;
12348;SDS011;5974;42.710;27.258;2023-07-08T12:12:05;5.43;;;4.93;;
12348;SDS011;5974;42.710;27.258;2023-07-08T12:14:40;5.70;;;5.27;;
12348;SDS011;5974;42.710;27.258;2023-07-08T12:17:09;6.70;;;5.00;;
12348;SDS011;5974;42.710;27.258;2023-07-08T12:19:38;6.30;;;5.60;;
12348;SDS011;5974;42.710;27.258;2023-07-08T12:22:08;6.00;;;5.43;;
12348;SDS011;5974;42.710;27.258;2023-07-08T12:24:40;7.37;;;5.40;;
12348;SDS011;5974;42.710;27.258;2023-07-08T12:27:09;5.40;;;5.00;;
12348;SDS011;5974;42.710;27.258;2023-07-08T12:29:37;8.03;;;5.10;;
12348;SDS011;5974;42.710;27.258;2023-07-08T12:32:04;5.57;;;5.07;;
12348;SDS011;5974;42.710;27.258;2023-07-08T12:34:32;6.40;;;5.20;;
12348;SDS011;5974;42.710;27.258;2023-07-08T12:36:59;7.43;;;5.07;;
12348;SDS011;5974;42.710;27.258;2023-07-08T12:39:26;5.50;;;4.60;;
12348;SDS011;5974;42.710;27.258;2023-07-08T12:41:58;6.10;;;4.87;;
12348;SDS011;5974;42.710;27.258;2023-07-08T12:44:27;5.30;;;4.80;;
12348;SDS011;5974;42.710;27.258;2023-07-08T12:46:54;5.00;;;4.60;;
12348;SDS011;5974;42.710;27.258;2023-07-08T12:49:21;4.50;;;4.10;;
12348;SDS011;5974;42.710;27.258;2023-07-08T12:51:52;4.73;;;4.23;;
12348;SDS011;5974;42.710;27.258;2023-07-08T12:54:19;5.73;;;4.33;;
12348;SDS011;5974;42.710;27.258;2023-07-08T12:56:47;6.73;;;5.03;;
12348;SDS011;5974;42.710;27.258;2023-07-08T12:59:14;4.53;;;4.13;;
12348;SDS011;5974;42.710;27.258;2023-07-08T13:01:47;5.20;;;4.70;;
12348;SDS011;5974;42.710;27.258;2023-07-08T13:04:17;5.20;;;4.10;;
12348;SDS011;5974;42.710;27.258;2023-07-08T13:06:45;4.13;;;3.83;;
12348;SDS011;5974;42.710;27.258;2023-07-08T13:09:32;4.30;;;3.90;;
12348;SDS011;5974;42.710;27.258;2023-07-08T13:12:05;5.43;;;3.73;;
12348;SDS011;5974;42.710;27.258;2023-07-08T13:14:39;5.63;;;4.20;;
12348;SDS011;5974;42.710;27.258;2023-07-08T13:17:11;4.93;;;3.70;;
12348;SDS011;5974;42.710;27.258;2023-07-08T13:19:40;4.30;;;3.90;;
12348;SDS011;5974;42.710;27.258;2023-07-08T13:22:10;5.27;;;4.07;;
12348;SDS011;5974;42.710;27.258;2023-07-08T13:24:42;5.67;;;3.77;;
12348;SDS011;5974;42.710;27.258;2023-07-08T13:27:13;6.20;;;3.87;;
12348;SDS011;5974;42.710;27.258;2023-07-08T13:29:44;7.67;;;3.90;;
12348;SDS011;5974;42.710;27.258;2023-07-08T13:32:13;4.40;;;4.00;;
12348;SDS011;5974;42.710;27.258;2023-07-08T13:34:40;3.80;;;3.50;;
12348;SDS011;5974;42.710;27.258;2023-07-08T13:37:09;5.53;;;3.90;;
12348;SDS011;5974;42.710;27.258;2023-07-08T13:39:38;5.80;;;3.87;;
12348;SDS011;5974;42.710;27.258;2023-07-08T13:42:10;4.83;;;3.83;;
12348;SDS011;5974;42.710;27.258;2023-07-08T13:44:41;7.60;;;3.90;;
12348;SDS011;5974;42.710;27.258;2023-07-08T13:47:21;5.20;;;4.00;;
12348;SDS011;5974;42.710;27.258;2023-07-08T13:49:53;4.47;;;4.03;;
12348;SDS011;5974;42.710;27.258;2023-07-08T13:52:25;4.67;;;3.83;;
12348;SDS011;5974;42.710;27.258;2023-07-08T13:54:54;7.33;;;3.93;;
12348;SDS011;5974;42.710;27.258;2023-07-08T13:57:28;7.87;;;3.90;;
12348;SDS011;5974;42.710;27.258;2023-07-08T13:59:58;4.93;;;3.00;;
12348;SDS011;5974;42.710;27.258;2023-07-08T14:02:27;5.30;;;3.40;;
12348;SDS011;5974;42.710;27.258;2023-07-08T14:04:57;4.60;;;3.33;;
12348;SDS011;5974;42.710;27.258;2023-07-08T14:07:29;3.70;;;3.30;;
12348;SDS011;5974;42.710;27.258;2023-07-08T14:09:58;3.53;;;3.23;;
12348;SDS011;5974;42.710;27.258;2023-07-08T14:12:25;3.83;;;3.47;;
12348;SDS011;5974;42.710;27.258;2023-07-08T14:14:52;3.73;;;3.13;;
12348;SDS011;5974;42.710;27.258;2023-07-08T14:17:20;4.67;;;3.27;;
12348;SDS011;5974;42.710;27.258;2023-07-08T14:19:50;4.20;;;3.50;;
12348;SDS011;5974;42.710;27.258;2023-07-08T14:22:23;3.97;;;3.30;;
12348;SDS011;5974;42.710;27.258;2023-07-08T14:24:52;6.80;;;3.30;;
12348;SDS011;5974;42.710;27.258;2023-07-08T14:27:20;4.37;;;3.33;;
12348;SDS011;5974;42.710;27.258;2023-07-08T14:29:47;3.67;;;3.17;;
12348;SDS011;5974;42.710;27.258;2023-07-08T14:32:16;4.17;;;3.47;;
12348;SDS011;5974;42.710;27.258;2023-07-08T14:34:48;3.80;;;3.40;;
12348;SDS011;5974;42.710;27.258;2023-07-08T14:37:19;6.03;;;3.43;;
12348;SDS011;5974;42.710;27.258;2023-07-08T14:39:47;3.80;;;3.30;;
12348;SDS011;5974;42.710;27.258;2023-07-08T14:42:14;4.60;;;3.23;;
12348;SDS011;5974;42.710;27.258;2023-07-08T14:44:43;5.87;;;3.40;;
12348;SDS011;5974;42.710;27.258;2023-07-08T14:47:13;5.90;;;3.50;;
12348;SDS011;5974;42.710;27.258;2023-07-08T14:49:42;5.53;;;3.40;;
12348;SDS011;5974;42.710;27.258;2023-07-08T14:52:10;4.97;;;3.40;;
12348;SDS011;5974;42.710;27.258;2023-07-08T14:54:37;4.17;;;3.23;;
12348;SDS011;5974;42.710;27.258;2023-07-08T14:57:05;6.47;;;3.63;;
12348;SDS011;5974;42.710;27.258;2023-07-08T14:59:33;6.00;;;3.13;;
12348;SDS011;5974;42.710;27.258;2023-07-08T15:02:02;5.33;;;3.07;;
12348;SDS011;5974;42.710;27.258;2023-07-08T15:04:44;5.93;;;3.60;;
12348;SDS011;5974;42.710;27.258;2023-07-08T15:07:13;7.33;;;3.53;;
12348;SDS011;5974;42.710;27.258;2023-07-08T15:09:40;3.43;;;3.17;;